sensor_id;sensor_type;location;lat;lon;timestamp;pressure;altitude;pressure_sealevel;temperature;humidity
59104;BME280;51449;51.676;5.812;2023-03-19T00:00:13;101023.44;;;12.47;73.58
59104;BME280;51449;51.676;5.812;2023-03-19T00:02:35;101013.03;;;12.43;73.63
59104;BME280;51449;51.676;5.812;2023-03-19T00:04:57;101016.50;;;12.40;74.19
59104;BME280;51449;51.676;5.812;2023-03-19T00:07:19;101028.13;;;12.34;74.72
59104;BME280;51449;51.676;5.812;2023-03-19T00:09:41;101030.06;;;12.33;74.06
59104;BME280;51449;51.676;5.812;2023-03-19T00:12:04;101022.13;;;12.32;74.13
59104;BME280;51449;51.676;5.812;2023-03-19T00:14:26;101025.69;;;12.32;74.35
59104;BME280;51449;51.676;5.812;2023-03-19T00:16:48;101020.16;;;12.32;74.33
59104;BME280;51449;51.676;5.812;2023-03-19T00:19:11;101013.00;;;12.31;74.37
59104;BME280;51449;51.676;5.812;2023-03-19T00:21:33;101020.00;;;12.29;74.83
59104;BME280;51449;51.676;5.812;2023-03-19T00:23:55;101024.28;;;12.26;75.22
59104;BME280;51449;51.676;5.812;2023-03-19T00:26:21;101015.41;;;12.20;75.08
59104;BME280;51449;51.676;5.812;2023-03-19T00:28:43;101017.69;;;12.18;75.10
59104;BME280;51449;51.676;5.812;2023-03-19T00:31:13;101010.56;;;12.17;75.44
59104;BME280;51449;51.676;5.812;2023-03-19T00:33:37;101015.13;;;12.13;75.85
59104;BME280;51449;51.676;5.812;2023-03-19T00:35:59;101011.56;;;12.13;75.95
59104;BME280;51449;51.676;5.812;2023-03-19T00:38:21;101009.50;;;12.10;76.45
59104;BME280;51449;51.676;5.812;2023-03-19T00:40:42;101019.72;;;12.09;77.15
59104;BME280;51449;51.676;5.812;2023-03-19T00:43:04;101019.59;;;12.06;77.01
59104;BME280;51449;51.676;5.812;2023-03-19T00:45:26;101014.06;;;12.06;76.46
59104;BME280;51449;51.676;5.812;2023-03-19T00:47:51;101014.88;;;12.06;76.66
59104;BME280;51449;51.676;5.812;2023-03-19T00:50:12;101022.38;;;12.06;76.19
59104;BME280;51449;51.676;5.812;2023-03-19T00:52:34;101025.94;;;12.06;76.46
59104;BME280;51449;51.676;5.812;2023-03-19T00:54:56;101018.44;;;12.07;76.00
59104;BME280;51449;51.676;5.812;2023-03-19T00:57:18;101025.44;;;12.04;76.95
59104;BME280;51449;51.676;5.812;2023-03-19T00:59:39;101024.97;;;12.02;76.48
59104;BME280;51449;51.676;5.812;2023-03-19T01:02:02;101028.09;;;12.01;76.52
59104;BME280;51449;51.676;5.812;2023-03-19T01:04:25;101034.41;;;12.01;76.81
59104;BME280;51449;51.676;5.812;2023-03-19T01:06:46;101031.53;;;11.97;77.55
59104;BME280;51449;51.676;5.812;2023-03-19T01:09:09;101030.72;;;11.97;77.46
59104;BME280;51449;51.676;5.812;2023-03-19T01:11:31;101020.81;;;11.96;77.32
59104;BME280;51449;51.676;5.812;2023-03-19T01:13:52;101025.53;;;11.95;77.97
59104;BME280;51449;51.676;5.812;2023-03-19T01:16:14;101021.16;;;11.94;77.62
59104;BME280;51449;51.676;5.812;2023-03-19T01:18:36;101021.97;;;11.95;77.95
59104;BME280;51449;51.676;5.812;2023-03-19T01:20:58;101022.31;;;11.93;78.12
59104;BME280;51449;51.676;5.812;2023-03-19T01:23:22;101028.16;;;11.92;78.29
59104;BME280;51449;51.676;5.812;2023-03-19T01:25:44;101020.56;;;11.89;78.89
59104;BME280;51449;51.676;5.812;2023-03-19T01:28:06;101020.88;;;11.87;78.89
59104;BME280;51449;51.676;5.812;2023-03-19T01:30:30;101016.19;;;11.88;78.85
59104;BME280;51449;51.676;5.812;2023-03-19T01:32:58;101021.06;;;11.82;79.64
59104;BME280;51449;51.676;5.812;2023-03-19T01:35:35;101021.75;;;11.79;79.76
59104;BME280;51449;51.676;5.812;2023-03-19T01:37:57;101017.22;;;11.74;80.11
59104;BME280;51449;51.676;5.812;2023-03-19T01:40:19;101014.16;;;11.76;79.93
59104;BME280;51449;51.676;5.812;2023-03-19T01:42:55;101015.94;;;11.72;79.86
59104;BME280;51449;51.676;5.812;2023-03-19T01:45:41;101004.63;;;11.65;80.03
59104;BME280;51449;51.676;5.812;2023-03-19T01:51:03;101000.47;;;11.59;80.09
59104;BME280;51449;51.676;5.812;2023-03-19T01:53:44;101003.56;;;11.57;79.54
59104;BME280;51449;51.676;5.812;2023-03-19T01:56:27;101002.78;;;11.56;79.98
59104;BME280;51449;51.676;5.812;2023-03-19T01:59:29;101013.00;;;11.56;79.75
59104;BME280;51449;51.676;5.812;2023-03-19T02:02:26;101015.28;;;11.54;79.59
59104;BME280;51449;51.676;5.812;2023-03-19T02:04:55;101011.38;;;11.55;79.84
59104;BME280;51449;51.676;5.812;2023-03-19T02:07:21;101011.72;;;11.53;80.09
59104;BME280;51449;51.676;5.812;2023-03-19T02:09:44;101013.66;;;11.53;80.24
59104;BME280;51449;51.676;5.812;2023-03-19T02:12:08;101012.84;;;11.52;80.56
59104;BME280;51449;51.676;5.812;2023-03-19T02:14:30;101011.72;;;11.53;80.58
59104;BME280;51449;51.676;5.812;2023-03-19T02:16:53;101021.13;;;11.52;80.73
59104;BME280;51449;51.676;5.812;2023-03-19T02:19:18;101016.88;;;11.55;80.51
59104;BME280;51449;51.676;5.812;2023-03-19T02:21:48;101018.38;;;11.52;80.82
59104;BME280;51449;51.676;5.812;2023-03-19T02:24:14;101013.81;;;11.56;80.64
59104;BME280;51449;51.676;5.812;2023-03-19T02:26:51;101019.81;;;11.59;80.41
59104;BME280;51449;51.676;5.812;2023-03-19T02:29:13;101015.09;;;11.59;80.23
59104;BME280;51449;51.676;5.812;2023-03-19T02:31:35;101008.09;;;11.62;80.78
59104;BME280;51449;51.676;5.812;2023-03-19T02:34:00;101008.75;;;11.59;80.61
59104;BME280;51449;51.676;5.812;2023-03-19T02:36:46;101010.69;;;11.58;80.71
59104;BME280;51449;51.676;5.812;2023-03-19T02:39:18;101011.38;;;11.55;80.79
59104;BME280;51449;51.676;5.812;2023-03-19T02:41:50;101012.66;;;11.57;80.34
59104;BME280;51449;51.676;5.812;2023-03-19T02:44:15;101018.16;;;11.57;80.86
59104;BME280;51449;51.676;5.812;2023-03-19T02:46:42;101015.41;;;11.57;80.86
59104;BME280;51449;51.676;5.812;2023-03-19T02:49:03;101011.03;;;11.56;81.01
59104;BME280;51449;51.676;5.812;2023-03-19T02:51:25;101008.63;;;11.55;81.28
59104;BME280;51449;51.676;5.812;2023-03-19T02:53:47;101007.13;;;11.57;81.28
59104;BME280;51449;51.676;5.812;2023-03-19T02:56:09;101015.75;;;11.56;81.30
59104;BME280;51449;51.676;5.812;2023-03-19T02:58:30;101024.03;;;11.56;81.53
59104;BME280;51449;51.676;5.812;2023-03-19T03:00:52;101025.66;;;11.57;81.60
59104;BME280;51449;51.676;5.812;2023-03-19T03:03:14;101021.59;;;11.54;81.78
59104;BME280;51449;51.676;5.812;2023-03-19T03:05:36;101033.13;;;11.56;81.68
59104;BME280;51449;51.676;5.812;2023-03-19T03:07:58;101024.84;;;11.56;81.90
59104;BME280;51449;51.676;5.812;2023-03-19T03:10:21;101027.94;;;11.55;81.87
59104;BME280;51449;51.676;5.812;2023-03-19T03:12:42;101025.66;;;11.57;81.67
59104;BME280;51449;51.676;5.812;2023-03-19T03:15:05;101031.97;;;11.57;81.51
59104;BME280;51449;51.676;5.812;2023-03-19T03:17:28;101030.16;;;11.62;81.27
59104;BME280;51449;51.676;5.812;2023-03-19T03:19:50;101031.63;;;11.59;81.72
59104;BME280;51449;51.676;5.812;2023-03-19T03:22:12;101039.91;;;11.59;81.82
59104;BME280;51449;51.676;5.812;2023-03-19T03:24:34;101038.75;;;11.60;81.38
59104;BME280;51449;51.676;5.812;2023-03-19T03:26:56;101040.41;;;11.61;81.48
59104;BME280;51449;51.676;5.812;2023-03-19T03:29:18;101038.44;;;11.62;81.85
59104;BME280;51449;51.676;5.812;2023-03-19T03:31:39;101031.75;;;11.63;81.44
59104;BME280;51449;51.676;5.812;2023-03-19T03:34:01;101038.13;;;11.63;81.96
59104;BME280;51449;51.676;5.812;2023-03-19T03:36:24;101038.44;;;11.62;82.14
59104;BME280;51449;51.676;5.812;2023-03-19T03:38:47;101039.25;;;11.62;81.62
59104;BME280;51449;51.676;5.812;2023-03-19T03:41:09;101038.44;;;11.62;81.77
59104;BME280;51449;51.676;5.812;2023-03-19T03:43:31;101040.03;;;11.63;81.71
59104;BME280;51449;51.676;5.812;2023-03-19T03:45:54;101041.69;;;11.64;81.76
59104;BME280;51449;51.676;5.812;2023-03-19T03:48:17;101037.75;;;11.65;81.29
59104;BME280;51449;51.676;5.812;2023-03-19T03:50:38;101027.53;;;11.65;81.05
59104;BME280;51449;51.676;5.812;2023-03-19T03:53:03;101040.69;;;11.68;81.21
59104;BME280;51449;51.676;5.812;2023-03-19T03:55:25;101027.19;;;11.67;81.25
59104;BME280;51449;51.676;5.812;2023-03-19T03:57:48;101035.81;;;11.65;81.68
59104;BME280;51449;51.676;5.812;2023-03-19T04:00:11;101038.44;;;11.62;81.72
59104;BME280;51449;51.676;5.812;2023-03-19T04:02:37;101043.47;;;11.60;82.00
59104;BME280;51449;51.676;5.812;2023-03-19T04:04:59;101041.88;;;11.59;82.13
59104;BME280;51449;51.676;5.812;2023-03-19T04:07:21;101051.75;;;11.60;82.00
59104;BME280;51449;51.676;5.812;2023-03-19T04:09:47;101050.16;;;11.59;81.60
59104;BME280;51449;51.676;5.812;2023-03-19T04:12:12;101054.53;;;11.60;81.49
59104;BME280;51449;51.676;5.812;2023-03-19T04:14:35;101055.69;;;11.59;81.92
59104;BME280;51449;51.676;5.812;2023-03-19T04:16:57;101052.09;;;11.58;81.65
59104;BME280;51449;51.676;5.812;2023-03-19T04:19:19;101054.03;;;11.57;81.74
59104;BME280;51449;51.676;5.812;2023-03-19T04:21:41;101057.16;;;11.56;81.72
59104;BME280;51449;51.676;5.812;2023-03-19T04:24:03;101049.19;;;11.54;81.88
59104;BME280;51449;51.676;5.812;2023-03-19T04:26:25;101055.03;;;11.53;81.92
59104;BME280;51449;51.676;5.812;2023-03-19T04:28:47;101049.88;;;11.51;81.65
59104;BME280;51449;51.676;5.812;2023-03-19T04:31:09;101046.66;;;11.49;81.54
59104;BME280;51449;51.676;5.812;2023-03-19T04:33:36;101059.97;;;11.47;81.48
59104;BME280;51449;51.676;5.812;2023-03-19T04:35:58;101059.16;;;11.47;81.11
59104;BME280;51449;51.676;5.812;2023-03-19T04:38:20;101059.00;;;11.43;81.23
59104;BME280;51449;51.676;5.812;2023-03-19T04:40:43;101064.22;;;11.36;80.75
59104;BME280;51449;51.676;5.812;2023-03-19T04:43:04;101069.13;;;11.30;80.80
59104;BME280;51449;51.676;5.812;2023-03-19T04:45:27;101075.66;;;11.26;80.72
59104;BME280;51449;51.676;5.812;2023-03-19T04:47:49;101070.81;;;11.23;80.56
59104;BME280;51449;51.676;5.812;2023-03-19T04:50:12;101066.75;;;11.20;80.66
59104;BME280;51449;51.676;5.812;2023-03-19T04:52:36;101059.47;;;11.16;80.74
59104;BME280;51449;51.676;5.812;2023-03-19T04:54:58;101071.19;;;11.12;80.72
59104;BME280;51449;51.676;5.812;2023-03-19T04:57:20;101078.00;;;11.06;80.78
59104;BME280;51449;51.676;5.812;2023-03-19T04:59:43;101072.00;;;11.04;80.96
59104;BME280;51449;51.676;5.812;2023-03-19T05:02:07;101077.72;;;10.99;81.10
59104;BME280;51449;51.676;5.812;2023-03-19T05:04:30;101082.94;;;10.92;81.13
59104;BME280;51449;51.676;5.812;2023-03-19T05:06:58;101074.19;;;10.90;80.95
59104;BME280;51449;51.676;5.812;2023-03-19T05:09:20;101076.97;;;10.90;81.04
59104;BME280;51449;51.676;5.812;2023-03-19T05:11:41;101075.63;;;10.87;80.88
59104;BME280;51449;51.676;5.812;2023-03-19T05:14:08;101080.69;;;10.85;80.57
59104;BME280;51449;51.676;5.812;2023-03-19T05:17:09;101077.78;;;10.82;80.54
59104;BME280;51449;51.676;5.812;2023-03-19T05:19:44;101086.72;;;10.79;80.42
59104;BME280;51449;51.676;5.812;2023-03-19T05:22:05;101097.91;;;10.74;80.19
59104;BME280;51449;51.676;5.812;2023-03-19T05:24:28;101097.59;;;10.66;80.33
59104;BME280;51449;51.676;5.812;2023-03-19T05:26:51;101101.34;;;10.62;80.04
59104;BME280;51449;51.676;5.812;2023-03-19T05:29:18;101092.75;;;10.55;79.96
59104;BME280;51449;51.676;5.812;2023-03-19T05:31:52;101099.25;;;10.50;80.04
59104;BME280;51449;51.676;5.812;2023-03-19T05:34:14;101098.28;;;10.46;80.17
59104;BME280;51449;51.676;5.812;2023-03-19T05:36:36;101104.44;;;10.43;79.87
59104;BME280;51449;51.676;5.812;2023-03-19T05:39:03;101098.78;;;10.39;80.23
59104;BME280;51449;51.676;5.812;2023-03-19T05:41:29;101102.81;;;10.33;80.12
59104;BME280;51449;51.676;5.812;2023-03-19T05:43:55;101109.00;;;10.30;80.28
59104;BME280;51449;51.676;5.812;2023-03-19T05:46:32;101107.19;;;10.25;80.31
59104;BME280;51449;51.676;5.812;2023-03-19T05:48:54;101107.84;;;10.22;79.98
59104;BME280;51449;51.676;5.812;2023-03-19T05:51:16;101106.53;;;10.20;80.52
59104;BME280;51449;51.676;5.812;2023-03-19T05:53:39;101113.16;;;10.19;80.53
59104;BME280;51449;51.676;5.812;2023-03-19T05:56:22;101119.31;;;10.16;80.64
59104;BME280;51449;51.676;5.812;2023-03-19T05:59:14;101122.88;;;10.16;80.65
59104;BME280;51449;51.676;5.812;2023-03-19T06:01:40;101116.88;;;10.14;81.04
59104;BME280;51449;51.676;5.812;2023-03-19T06:04:02;101125.50;;;10.13;81.11
59104;BME280;51449;51.676;5.812;2023-03-19T06:06:26;101121.59;;;10.14;80.67
59104;BME280;51449;51.676;5.812;2023-03-19T06:08:49;101125.50;;;10.13;80.79
59104;BME280;51449;51.676;5.812;2023-03-19T06:11:20;101141.66;;;10.14;80.99
59104;BME280;51449;51.676;5.812;2023-03-19T06:13:55;101132.44;;;10.10;81.12
59104;BME280;51449;51.676;5.812;2023-03-19T06:16:16;101137.97;;;10.10;80.84
59104;BME280;51449;51.676;5.812;2023-03-19T06:18:45;101140.72;;;10.10;80.82
59104;BME280;51449;51.676;5.812;2023-03-19T06:21:09;101135.22;;;10.10;80.63
59104;BME280;51449;51.676;5.812;2023-03-19T06:23:30;101146.22;;;10.10;80.48
59104;BME280;51449;51.676;5.812;2023-03-19T06:25:55;101142.66;;;10.10;80.50
59104;BME280;51449;51.676;5.812;2023-03-19T06:28:19;101147.69;;;10.07;80.44
59104;BME280;51449;51.676;5.812;2023-03-19T06:30:43;101150.75;;;10.06;80.80
59104;BME280;51449;51.676;5.812;2023-03-19T06:33:33;101153.81;;;10.04;81.38
59104;BME280;51449;51.676;5.812;2023-03-19T06:35:57;101157.38;;;10.05;82.21
59104;BME280;51449;51.676;5.812;2023-03-19T06:38:21;101161.94;;;10.10;82.06
59104;BME280;51449;51.676;5.812;2023-03-19T06:40:42;101159.03;;;10.15;82.20
59104;BME280;51449;51.676;5.812;2023-03-19T06:43:04;101167.63;;;10.22;82.01
59104;BME280;51449;51.676;5.812;2023-03-19T06:45:26;101161.16;;;10.44;82.14
59104;BME280;51449;51.676;5.812;2023-03-19T06:47:48;101165.13;;;10.99;81.27
59104;BME280;51449;51.676;5.812;2023-03-19T06:50:15;101161.66;;;11.96;79.05
59104;BME280;51449;51.676;5.812;2023-03-19T06:52:39;101165.09;;;12.35;76.78
59104;BME280;51449;51.676;5.812;2023-03-19T06:55:02;101165.03;;;12.23;76.86
59104;BME280;51449;51.676;5.812;2023-03-19T06:57:23;101168.41;;;12.07;77.32
59104;BME280;51449;51.676;5.812;2023-03-19T06:59:45;101166.16;;;12.01;77.33
59104;BME280;51449;51.676;5.812;2023-03-19T07:02:10;101169.00;;;11.83;78.30
59104;BME280;51449;51.676;5.812;2023-03-19T07:04:32;101177.22;;;11.62;78.95
59104;BME280;51449;51.676;5.812;2023-03-19T07:06:54;101187.53;;;11.44;79.37
59104;BME280;51449;51.676;5.812;2023-03-19T07:09:15;101182.22;;;11.30;79.95
59104;BME280;51449;51.676;5.812;2023-03-19T07:11:37;101192.34;;;11.18;80.49
59104;BME280;51449;51.676;5.812;2023-03-19T07:13:59;101203.38;;;11.09;81.13
59104;BME280;51449;51.676;5.812;2023-03-19T07:16:21;101206.00;;;11.05;81.18
59104;BME280;51449;51.676;5.812;2023-03-19T07:18:42;101196.09;;;11.04;81.01
59104;BME280;51449;51.676;5.812;2023-03-19T07:21:04;101194.47;;;11.03;81.55
59104;BME280;51449;51.676;5.812;2023-03-19T07:23:26;101206.66;;;11.02;81.84
59104;BME280;51449;51.676;5.812;2023-03-19T07:25:48;101205.03;;;11.01;81.97
59104;BME280;51449;51.676;5.812;2023-03-19T07:28:09;101208.28;;;11.03;82.22
59104;BME280;51449;51.676;5.812;2023-03-19T07:30:31;101206.31;;;11.04;82.11
59104;BME280;51449;51.676;5.812;2023-03-19T07:32:53;101207.59;;;11.06;82.29
59104;BME280;51449;51.676;5.812;2023-03-19T07:35:15;101210.03;;;11.08;81.86
59104;BME280;51449;51.676;5.812;2023-03-19T07:37:37;101211.47;;;11.14;82.24
59104;BME280;51449;51.676;5.812;2023-03-19T07:39:59;101215.19;;;11.27;82.00
59104;BME280;51449;51.676;5.812;2023-03-19T07:42:21;101217.25;;;11.39;82.42
59104;BME280;51449;51.676;5.812;2023-03-19T07:44:42;101219.31;;;11.50;82.81
59104;BME280;51449;51.676;5.812;2023-03-19T07:47:04;101215.88;;;11.62;83.11
59104;BME280;51449;51.676;5.812;2023-03-19T07:49:33;101219.53;;;11.75;84.13
59104;BME280;51449;51.676;5.812;2023-03-19T07:51:55;101207.31;;;11.85;83.99
59104;BME280;51449;51.676;5.812;2023-03-19T07:54:17;101214.59;;;11.98;83.77
59104;BME280;51449;51.676;5.812;2023-03-19T07:56:39;101215.50;;;12.11;83.87
59104;BME280;51449;51.676;5.812;2023-03-19T07:59:00;101209.56;;;12.21;83.76
59104;BME280;51449;51.676;5.812;2023-03-19T08:01:22;101215.84;;;12.30;83.47
59104;BME280;51449;51.676;5.812;2023-03-19T08:03:44;101221.59;;;12.46;83.01
59104;BME280;51449;51.676;5.812;2023-03-19T08:06:06;101217.00;;;12.50;82.21
59104;BME280;51449;51.676;5.812;2023-03-19T08:08:28;101214.19;;;12.59;81.60
59104;BME280;51449;51.676;5.812;2023-03-19T08:10:52;101221.94;;;12.66;81.36
59104;BME280;51449;51.676;5.812;2023-03-19T08:13:15;101209.84;;;12.70;80.62
59104;BME280;51449;51.676;5.812;2023-03-19T08:15:37;101218.75;;;12.76;80.38
59104;BME280;51449;51.676;5.812;2023-03-19T08:17:59;101221.41;;;12.84;79.42
59104;BME280;51449;51.676;5.812;2023-03-19T08:20:24;101220.66;;;12.96;79.06
59104;BME280;51449;51.676;5.812;2023-03-19T08:22:48;101224.75;;;13.11;78.74
59104;BME280;51449;51.676;5.812;2023-03-19T08:25:11;101240.25;;;13.24;77.95
59104;BME280;51449;51.676;5.812;2023-03-19T08:27:33;101232.22;;;13.32;77.05
59104;BME280;51449;51.676;5.812;2023-03-19T08:29:57;101235.03;;;13.44;76.30
59104;BME280;51449;51.676;5.812;2023-03-19T08:32:19;101235.63;;;13.62;76.10
59104;BME280;51449;51.676;5.812;2023-03-19T08:34:40;101238.06;;;13.76;76.17
59104;BME280;51449;51.676;5.812;2023-03-19T08:37:02;101233.19;;;13.85;75.34
59104;BME280;51449;51.676;5.812;2023-03-19T08:39:24;101245.09;;;13.98;74.60
59104;BME280;51449;51.676;5.812;2023-03-19T08:41:45;101243.81;;;14.07;74.11
59104;BME280;51449;51.676;5.812;2023-03-19T08:44:07;101240.69;;;14.09;72.97
59104;BME280;51449;51.676;5.812;2023-03-19T08:46:29;101242.09;;;14.15;73.01
59104;BME280;51449;51.676;5.812;2023-03-19T08:48:51;101245.97;;;14.26;72.95
59104;BME280;51449;51.676;5.812;2023-03-19T08:51:13;101255.47;;;14.25;71.90
59104;BME280;51449;51.676;5.812;2023-03-19T08:53:35;101256.16;;;14.22;70.91
59104;BME280;51449;51.676;5.812;2023-03-19T08:56:00;101255.78;;;14.24;71.12
59104;BME280;51449;51.676;5.812;2023-03-19T08:58:25;101266.31;;;14.30;70.16
59104;BME280;51449;51.676;5.812;2023-03-19T09:00:47;101268.06;;;14.23;69.88
59104;BME280;51449;51.676;5.812;2023-03-19T09:03:09;101258.13;;;14.34;70.58
59104;BME280;51449;51.676;5.812;2023-03-19T09:05:31;101260.16;;;14.49;70.91
59104;BME280;51449;51.676;5.812;2023-03-19T09:07:53;101274.50;;;14.64;70.54
59104;BME280;51449;51.676;5.812;2023-03-19T09:10:14;101274.25;;;14.69;69.28
59104;BME280;51449;51.676;5.812;2023-03-19T09:12:36;101270.06;;;14.75;69.00
59104;BME280;51449;51.676;5.812;2023-03-19T09:14:58;101272.41;;;14.73;67.85
59104;BME280;51449;51.676;5.812;2023-03-19T09:17:19;101270.00;;;14.87;68.70
59104;BME280;51449;51.676;5.812;2023-03-19T09:19:41;101273.56;;;15.00;68.73
59104;BME280;51449;51.676;5.812;2023-03-19T09:22:03;101275.50;;;15.12;68.31
59104;BME280;51449;51.676;5.812;2023-03-19T09:24:25;101279.94;;;15.16;67.95
59104;BME280;51449;51.676;5.812;2023-03-19T09:26:47;101276.50;;;15.19;67.60
59104;BME280;51449;51.676;5.812;2023-03-19T09:29:10;101269.94;;;15.12;67.21
59104;BME280;51449;51.676;5.812;2023-03-19T09:31:32;101280.59;;;15.10;67.00
59104;BME280;51449;51.676;5.812;2023-03-19T09:33:54;101282.53;;;15.09;66.00
59104;BME280;51449;51.676;5.812;2023-03-19T09:36:15;101284.16;;;15.10;66.05
59104;BME280;51449;51.676;5.812;2023-03-19T09:38:37;101286.06;;;15.22;65.90
59104;BME280;51449;51.676;5.812;2023-03-19T09:43:57;101287.75;;;15.55;66.90
59104;BME280;51449;51.676;5.812;2023-03-19T09:46:51;101293.56;;;15.50;66.77
59104;BME280;51449;51.676;5.812;2023-03-19T09:49:26;101306.34;;;15.38;65.80
59104;BME280;51449;51.676;5.812;2023-03-19T09:51:58;101304.59;;;15.46;65.22
59104;BME280;51449;51.676;5.812;2023-03-19T09:54:46;101312.47;;;15.60;64.27
59104;BME280;51449;51.676;5.812;2023-03-19T09:57:13;101305.72;;;15.73;63.79
59104;BME280;51449;51.676;5.812;2023-03-19T09:59:36;101320.06;;;15.75;62.32
59104;BME280;51449;51.676;5.812;2023-03-19T10:05:08;101318.16;;;15.35;63.33
59104;BME280;51449;51.676;5.812;2023-03-19T10:08:06;101322.63;;;15.24;63.64
59104;BME280;51449;51.676;5.812;2023-03-19T10:11:18;101327.84;;;15.13;63.81
59104;BME280;51449;51.676;5.812;2023-03-19T10:14:07;101320.59;;;15.09;63.76
59104;BME280;51449;51.676;5.812;2023-03-19T10:16:44;101331.81;;;15.12;63.70
59104;BME280;51449;51.676;5.812;2023-03-19T10:19:12;101317.75;;;15.21;63.62
59104;BME280;51449;51.676;5.812;2023-03-19T10:21:44;101321.00;;;15.23;63.47
59104;BME280;51449;51.676;5.812;2023-03-19T10:24:17;101323.31;;;15.21;62.95
59104;BME280;51449;51.676;5.812;2023-03-19T10:26:44;101323.31;;;15.21;63.25
59104;BME280;51449;51.676;5.812;2023-03-19T10:29:15;101324.09;;;15.34;62.60
59104;BME280;51449;51.676;5.812;2023-03-19T10:34:44;101324.31;;;15.29;62.56
59104;BME280;51449;51.676;5.812;2023-03-19T10:39:35;101326.03;;;15.61;62.83
59104;BME280;51449;51.676;5.812;2023-03-19T10:42:20;101326.88;;;15.94;63.39
59104;BME280;51449;51.676;5.812;2023-03-19T10:45:02;101330.03;;;16.08;61.23
59104;BME280;51449;51.676;5.812;2023-03-19T10:47:37;101326.16;;;16.13;61.11
59104;BME280;51449;51.676;5.812;2023-03-19T10:50:02;101326.53;;;16.11;60.50
59104;BME280;51449;51.676;5.812;2023-03-19T10:52:30;101332.97;;;16.15;59.75
59104;BME280;51449;51.676;5.812;2023-03-19T10:55:00;101327.88;;;16.17;59.37
59104;BME280;51449;51.676;5.812;2023-03-19T10:57:28;101333.78;;;16.32;60.32
59104;BME280;51449;51.676;5.812;2023-03-19T10:59:52;101339.25;;;16.44;59.14
59104;BME280;51449;51.676;5.812;2023-03-19T11:02:17;101329.16;;;16.55;58.33
59104;BME280;51449;51.676;5.812;2023-03-19T11:04:41;101334.59;;;16.67;59.06
59104;BME280;51449;51.676;5.812;2023-03-19T11:07:11;101330.63;;;16.84;59.05
59104;BME280;51449;51.676;5.812;2023-03-19T11:09:40;101326.56;;;16.98;58.82
59104;BME280;51449;51.676;5.812;2023-03-19T11:12:18;101342.03;;;17.15;58.83
59104;BME280;51449;51.676;5.812;2023-03-19T11:15:02;101329.91;;;17.26;58.49
59104;BME280;51449;51.676;5.812;2023-03-19T11:17:47;101338.94;;;17.39;58.40
59104;BME280;51449;51.676;5.812;2023-03-19T11:20:21;101345.16;;;17.32;57.87
59104;BME280;51449;51.676;5.812;2023-03-19T11:22:49;101342.81;;;17.15;57.17
59104;BME280;51449;51.676;5.812;2023-03-19T11:28:00;101350.81;;;16.97;58.69
59104;BME280;51449;51.676;5.812;2023-03-19T11:33:47;101349.41;;;16.87;57.40
59104;BME280;51449;51.676;5.812;2023-03-19T11:36:32;101355.41;;;16.74;56.93
59104;BME280;51449;51.676;5.812;2023-03-19T11:42:43;101356.09;;;16.51;57.30
59104;BME280;51449;51.676;5.812;2023-03-19T11:45:22;101346.75;;;16.43;58.03
59104;BME280;51449;51.676;5.812;2023-03-19T11:48:22;101354.41;;;16.46;58.41
59104;BME280;51449;51.676;5.812;2023-03-19T11:51:18;101358.44;;;16.49;57.85
59104;BME280;51449;51.676;5.812;2023-03-19T11:53:54;101350.09;;;16.49;57.85
59104;BME280;51449;51.676;5.812;2023-03-19T11:56:51;101351.22;;;16.48;57.86
59104;BME280;51449;51.676;5.812;2023-03-19T11:59:41;101358.34;;;16.45;58.40
59104;BME280;51449;51.676;5.812;2023-03-19T12:02:40;101357.53;;;16.45;58.04
59104;BME280;51449;51.676;5.812;2023-03-19T12:05:30;101354.06;;;16.32;58.25
59104;BME280;51449;51.676;5.812;2023-03-19T12:19:54;101342.94;;;16.00;59.23
59104;BME280;51449;51.676;5.812;2023-03-19T12:22:44;101338.97;;;16.01;59.20
59104;BME280;51449;51.676;5.812;2023-03-19T12:28:38;101345.53;;;16.09;58.89
59104;BME280;51449;51.676;5.812;2023-03-19T12:34:29;101346.59;;;16.20;59.25
59104;BME280;51449;51.676;5.812;2023-03-19T12:37:06;101348.88;;;16.15;59.30
59104;BME280;51449;51.676;5.812;2023-03-19T12:39:47;101349.94;;;16.10;59.04
59104;BME280;51449;51.676;5.812;2023-03-19T12:42:16;101345.00;;;16.19;58.65
59104;BME280;51449;51.676;5.812;2023-03-19T12:44:45;101347.19;;;16.45;58.50
59104;BME280;51449;51.676;5.812;2023-03-19T12:47:26;101339.88;;;16.73;58.33
59104;BME280;51449;51.676;5.812;2023-03-19T12:49:58;101347.94;;;16.94;56.62
59104;BME280;51449;51.676;5.812;2023-03-19T12:52:34;101337.88;;;16.89;56.74
59104;BME280;51449;51.676;5.812;2023-03-19T12:55:18;101342.56;;;16.85;57.70
59104;BME280;51449;51.676;5.812;2023-03-19T12:57:57;101342.56;;;16.85;57.46
59104;BME280;51449;51.676;5.812;2023-03-19T13:00:31;101346.19;;;16.85;57.44
59104;BME280;51449;51.676;5.812;2023-03-19T13:03:17;101350.09;;;16.84;56.60
59104;BME280;51449;51.676;5.812;2023-03-19T13:08:27;101344.31;;;16.58;56.50
59104;BME280;51449;51.676;5.812;2023-03-19T13:10:56;101351.69;;;16.50;56.80
59104;BME280;51449;51.676;5.812;2023-03-19T13:16:32;101360.88;;;16.35;57.69
59104;BME280;51449;51.676;5.812;2023-03-19T13:19:27;101364.28;;;16.28;57.92
59104;BME280;51449;51.676;5.812;2023-03-19T13:21:59;101355.13;;;16.27;57.93
59104;BME280;51449;51.676;5.812;2023-03-19T13:24:30;101358.38;;;16.30;58.17
59104;BME280;51449;51.676;5.812;2023-03-19T13:26:57;101353.06;;;16.24;58.49
59104;BME280;51449;51.676;5.812;2023-03-19T13:29:24;101360.59;;;16.24;58.52
59104;BME280;51449;51.676;5.812;2023-03-19T13:31:51;101365.97;;;16.33;58.90
59104;BME280;51449;51.676;5.812;2023-03-19T13:34:24;101367.69;;;16.37;58.39
59104;BME280;51449;51.676;5.812;2023-03-19T13:37:17;101369.56;;;16.49;58.45